sensor_id;sensor_type;location;lat;lon;timestamp;temperature;humidity
28761;DHT22;15917;50.014;8.352;2023-08-08T00:00:17;16.20;99.90
28761;DHT22;15917;50.014;8.352;2023-08-08T00:02:43;16.20;99.90
28761;DHT22;15917;50.014;8.352;2023-08-08T00:05:09;16.20;99.90
28761;DHT22;15917;50.014;8.352;2023-08-08T00:07:34;16.20;99.90
28761;DHT22;15917;50.014;8.352;2023-08-08T00:10:00;16.20;99.90
28761;DHT22;15917;50.014;8.352;2023-08-08T00:12:26;16.20;99.90
28761;DHT22;15917;50.014;8.352;2023-08-08T00:14:51;16.20;99.90
28761;DHT22;15917;50.014;8.352;2023-08-08T00:17:17;16.10;99.90
28761;DHT22;15917;50.014;8.352;2023-08-08T00:19:42;16.10;99.90
28761;DHT22;15917;50.014;8.352;2023-08-08T00:22:08;16.10;99.90
28761;DHT22;15917;50.014;8.352;2023-08-08T00:24:34;16.10;99.90
28761;DHT22;15917;50.014;8.352;2023-08-08T00:26:59;16.00;99.90
28761;DHT22;15917;50.014;8.352;2023-08-08T00:29:25;16.00;99.90
28761;DHT22;15917;50.014;8.352;2023-08-08T00:31:51;15.90;99.90
28761;DHT22;15917;50.014;8.352;2023-08-08T00:34:16;16.00;99.90
28761;DHT22;15917;50.014;8.352;2023-08-08T00:36:42;15.90;99.90
28761;DHT22;15917;50.014;8.352;2023-08-08T00:39:08;16.00;99.90
28761;DHT22;15917;50.014;8.352;2023-08-08T00:41:34;16.00;99.90
28761;DHT22;15917;50.014;8.352;2023-08-08T00:44:00;16.00;99.90
28761;DHT22;15917;50.014;8.352;2023-08-08T00:46:25;16.00;99.90
28761;DHT22;15917;50.014;8.352;2023-08-08T00:48:52;16.00;99.90
28761;DHT22;15917;50.014;8.352;2023-08-08T00:51:19;16.00;99.90
28761;DHT22;15917;50.014;8.352;2023-08-08T00:53:46;16.00;99.90
28761;DHT22;15917;50.014;8.352;2023-08-08T00:56:13;16.00;99.90
28761;DHT22;15917;50.014;8.352;2023-08-08T00:58:41;16.00;99.90
28761;DHT22;15917;50.014;8.352;2023-08-08T01:01:07;15.90;99.90
28761;DHT22;15917;50.014;8.352;2023-08-08T01:03:33;16.00;99.90
28761;DHT22;15917;50.014;8.352;2023-08-08T01:06:03;16.00;99.90
28761;DHT22;15917;50.014;8.352;2023-08-08T01:08:48;16.00;99.90
28761;DHT22;15917;50.014;8.352;2023-08-08T01:11:17;16.00;99.90
28761;DHT22;15917;50.014;8.352;2023-08-08T01:13:43;15.90;99.90
28761;DHT22;15917;50.014;8.352;2023-08-08T01:16:09;15.90;99.90
28761;DHT22;15917;50.014;8.352;2023-08-08T01:18:36;15.90;99.90
28761;DHT22;15917;50.014;8.352;2023-08-08T01:21:03;15.90;99.90
28761;DHT22;15917;50.014;8.352;2023-08-08T01:23:41;15.90;99.90
28761;DHT22;15917;50.014;8.352;2023-08-08T01:26:08;15.90;99.90
28761;DHT22;15917;50.014;8.352;2023-08-08T01:28:34;15.80;99.90
28761;DHT22;15917;50.014;8.352;2023-08-08T01:31:00;15.80;99.90
28761;DHT22;15917;50.014;8.352;2023-08-08T01:33:25;15.80;99.90
28761;DHT22;15917;50.014;8.352;2023-08-08T01:35:55;15.90;99.90
28761;DHT22;15917;50.014;8.352;2023-08-08T01:38:26;15.80;99.90
28761;DHT22;15917;50.014;8.352;2023-08-08T01:40:56;15.80;99.90
28761;DHT22;15917;50.014;8.352;2023-08-08T01:43:22;15.80;99.90
28761;DHT22;15917;50.014;8.352;2023-08-08T01:45:48;15.80;99.90
28761;DHT22;15917;50.014;8.352;2023-08-08T01:48:14;15.80;99.90
28761;DHT22;15917;50.014;8.352;2023-08-08T01:50:39;15.80;99.90
28761;DHT22;15917;50.014;8.352;2023-08-08T01:53:05;15.80;99.90
28761;DHT22;15917;50.014;8.352;2023-08-08T01:55:31;15.70;99.90
28761;DHT22;15917;50.014;8.352;2023-08-08T01:57:57;15.70;99.90
28761;DHT22;15917;50.014;8.352;2023-08-08T02:00:23;15.70;99.90
28761;DHT22;15917;50.014;8.352;2023-08-08T02:02:49;15.70;99.90
28761;DHT22;15917;50.014;8.352;2023-08-08T02:05:15;15.70;99.90
28761;DHT22;15917;50.014;8.352;2023-08-08T02:07:40;15.60;99.90
28761;DHT22;15917;50.014;8.352;2023-08-08T02:10:06;15.50;99.90
28761;DHT22;15917;50.014;8.352;2023-08-08T02:12:32;15.50;99.90
28761;DHT22;15917;50.014;8.352;2023-08-08T02:14:58;15.50;99.90
28761;DHT22;15917;50.014;8.352;2023-08-08T02:17:25;15.40;99.90
28761;DHT22;15917;50.014;8.352;2023-08-08T02:19:51;15.40;99.90
28761;DHT22;15917;50.014;8.352;2023-08-08T02:22:17;15.40;99.90
28761;DHT22;15917;50.014;8.352;2023-08-08T02:24:43;15.30;99.90
28761;DHT22;15917;50.014;8.352;2023-08-08T02:27:09;15.30;99.90
28761;DHT22;15917;50.014;8.352;2023-08-08T02:29:35;15.20;99.90
28761;DHT22;15917;50.014;8.352;2023-08-08T02:32:01;15.20;99.90
28761;DHT22;15917;50.014;8.352;2023-08-08T02:34:27;15.20;99.90
28761;DHT22;15917;50.014;8.352;2023-08-08T02:36:52;15.20;99.90
28761;DHT22;15917;50.014;8.352;2023-08-08T02:39:18;15.10;99.90
28761;DHT22;15917;50.014;8.352;2023-08-08T02:41:43;15.10;99.90
28761;DHT22;15917;50.014;8.352;2023-08-08T02:44:09;15.00;99.90
28761;DHT22;15917;50.014;8.352;2023-08-08T02:46:35;15.00;99.90
28761;DHT22;15917;50.014;8.352;2023-08-08T02:49:06;14.90;99.90
28761;DHT22;15917;50.014;8.352;2023-08-08T02:51:32;14.90;99.90
28761;DHT22;15917;50.014;8.352;2023-08-08T02:53:57;14.80;99.90
28761;DHT22;15917;50.014;8.352;2023-08-08T02:56:23;14.80;99.90
28761;DHT22;15917;50.014;8.352;2023-08-08T02:58:51;14.80;99.90
28761;DHT22;15917;50.014;8.352;2023-08-08T03:01:17;14.70;99.90
28761;DHT22;15917;50.014;8.352;2023-08-08T03:03:44;14.70;99.90
28761;DHT22;15917;50.014;8.352;2023-08-08T03:06:10;14.70;99.90
28761;DHT22;15917;50.014;8.352;2023-08-08T03:08:36;14.70;99.90
28761;DHT22;15917;50.014;8.352;2023-08-08T03:11:03;14.60;99.90
28761;DHT22;15917;50.014;8.352;2023-08-08T03:13:28;14.60;99.90
28761;DHT22;15917;50.014;8.352;2023-08-08T03:15:55;14.60;99.90
28761;DHT22;15917;50.014;8.352;2023-08-08T03:18:23;14.60;99.90
28761;DHT22;15917;50.014;8.352;2023-08-08T03:20:50;14.60;99.90
28761;DHT22;15917;50.014;8.352;2023-08-08T03:23:17;14.50;99.90
28761;DHT22;15917;50.014;8.352;2023-08-08T03:25:43;14.50;99.90
28761;DHT22;15917;50.014;8.352;2023-08-08T03:28:09;14.40;99.90
28761;DHT22;15917;50.014;8.352;2023-08-08T03:30:37;14.40;99.90
28761;DHT22;15917;50.014;8.352;2023-08-08T03:33:05;14.40;99.90
28761;DHT22;15917;50.014;8.352;2023-08-08T03:35:30;14.40;99.90
28761;DHT22;15917;50.014;8.352;2023-08-08T03:37:56;14.30;99.90
28761;DHT22;15917;50.014;8.352;2023-08-08T03:40:21;14.20;99.90
28761;DHT22;15917;50.014;8.352;2023-08-08T03:42:47;14.30;99.90
28761;DHT22;15917;50.014;8.352;2023-08-08T03:45:13;14.30;99.90
28761;DHT22;15917;50.014;8.352;2023-08-08T03:47:39;14.20;99.90
28761;DHT22;15917;50.014;8.352;2023-08-08T03:50:07;14.20;99.90
28761;DHT22;15917;50.014;8.352;2023-08-08T03:52:34;14.20;99.90
28761;DHT22;15917;50.014;8.352;2023-08-08T03:55:01;14.20;99.90
28761;DHT22;15917;50.014;8.352;2023-08-08T03:57:27;14.20;99.90
28761;DHT22;15917;50.014;8.352;2023-08-08T03:59:52;14.10;99.90
28761;DHT22;15917;50.014;8.352;2023-08-08T04:02:19;14.10;99.90
28761;DHT22;15917;50.014;8.352;2023-08-08T04:04:44;14.10;99.90
28761;DHT22;15917;50.014;8.352;2023-08-08T04:07:10;14.10;99.90
28761;DHT22;15917;50.014;8.352;2023-08-08T04:09:35;14.10;99.90
28761;DHT22;15917;50.014;8.352;2023-08-08T04:12:01;14.10;99.90
28761;DHT22;15917;50.014;8.352;2023-08-08T04:14:27;14.00;99.90
28761;DHT22;15917;50.014;8.352;2023-08-08T04:16:52;14.00;99.90
28761;DHT22;15917;50.014;8.352;2023-08-08T04:19:18;14.00;99.90
28761;DHT22;15917;50.014;8.352;2023-08-08T04:21:43;14.20;99.90
28761;DHT22;15917;50.014;8.352;2023-08-08T04:24:09;14.30;99.90
28761;DHT22;15917;50.014;8.352;2023-08-08T04:26:35;14.40;99.90
28761;DHT22;15917;50.014;8.352;2023-08-08T04:29:00;14.30;99.90
28761;DHT22;15917;50.014;8.352;2023-08-08T04:31:26;14.50;99.90
28761;DHT22;15917;50.014;8.352;2023-08-08T04:33:52;14.80;99.90
28761;DHT22;15917;50.014;8.352;2023-08-08T04:36:21;14.80;99.90
28761;DHT22;15917;50.014;8.352;2023-08-08T04:38:46;14.90;99.90
28761;DHT22;15917;50.014;8.352;2023-08-08T04:41:12;14.80;99.90
28761;DHT22;15917;50.014;8.352;2023-08-08T04:43:37;14.80;99.90
28761;DHT22;15917;50.014;8.352;2023-08-08T04:46:03;14.80;99.90
28761;DHT22;15917;50.014;8.352;2023-08-08T04:48:29;14.70;99.90
28761;DHT22;15917;50.014;8.352;2023-08-08T04:50:54;14.70;99.90
28761;DHT22;15917;50.014;8.352;2023-08-08T04:53:20;14.70;99.90
28761;DHT22;15917;50.014;8.352;2023-08-08T04:55:45;14.50;99.90
28761;DHT22;15917;50.014;8.352;2023-08-08T04:58:11;14.40;99.90
28761;DHT22;15917;50.014;8.352;2023-08-08T05:00:37;14.30;99.90
28761;DHT22;15917;50.014;8.352;2023-08-08T05:03:02;14.20;99.90
28761;DHT22;15917;50.014;8.352;2023-08-08T05:05:31;14.20;99.90
28761;DHT22;15917;50.014;8.352;2023-08-08T05:07:56;14.20;99.90
28761;DHT22;15917;50.014;8.352;2023-08-08T05:10:22;14.20;99.90
28761;DHT22;15917;50.014;8.352;2023-08-08T05:12:48;14.20;99.90
28761;DHT22;15917;50.014;8.352;2023-08-08T05:15:13;14.20;99.90
28761;DHT22;15917;50.014;8.352;2023-08-08T05:17:39;14.20;99.90
28761;DHT22;15917;50.014;8.352;2023-08-08T05:20:05;14.30;99.90
28761;DHT22;15917;50.014;8.352;2023-08-08T05:22:31;14.30;99.90
28761;DHT22;15917;50.014;8.352;2023-08-08T05:24:57;14.40;99.90
28761;DHT22;15917;50.014;8.352;2023-08-08T05:27:22;14.40;99.90
28761;DHT22;15917;50.014;8.352;2023-08-08T05:29:48;14.40;99.90
28761;DHT22;15917;50.014;8.352;2023-08-08T05:32:13;14.50;99.90
28761;DHT22;15917;50.014;8.352;2023-08-08T05:34:39;14.60;99.90
28761;DHT22;15917;50.014;8.352;2023-08-08T05:37:05;14.60;99.90
28761;DHT22;15917;50.014;8.352;2023-08-08T05:39:30;14.60;99.90
28761;DHT22;15917;50.014;8.352;2023-08-08T05:41:56;14.70;99.90
28761;DHT22;15917;50.014;8.352;2023-08-08T05:44:22;14.70;99.90
28761;DHT22;15917;50.014;8.352;2023-08-08T05:46:47;14.80;99.90
28761;DHT22;15917;50.014;8.352;2023-08-08T05:49:13;14.80;99.90
28761;DHT22;15917;50.014;8.352;2023-08-08T05:51:40;14.80;99.90
28761;DHT22;15917;50.014;8.352;2023-08-08T05:54:06;14.90;99.90
28761;DHT22;15917;50.014;8.352;2023-08-08T05:56:38;14.90;99.90
28761;DHT22;15917;50.014;8.352;2023-08-08T05:59:04;14.90;99.90
28761;DHT22;15917;50.014;8.352;2023-08-08T06:01:30;15.00;99.90
28761;DHT22;15917;50.014;8.352;2023-08-08T06:03:55;15.00;99.90
28761;DHT22;15917;50.014;8.352;2023-08-08T06:06:21;15.10;99.90
28761;DHT22;15917;50.014;8.352;2023-08-08T06:08:46;15.20;99.90
28761;DHT22;15917;50.014;8.352;2023-08-08T06:11:12;15.30;99.90
28761;DHT22;15917;50.014;8.352;2023-08-08T06:13:38;15.40;99.90
28761;DHT22;15917;50.014;8.352;2023-08-08T06:16:03;15.40;99.90
28761;DHT22;15917;50.014;8.352;2023-08-08T06:18:32;15.60;99.90
28761;DHT22;15917;50.014;8.352;2023-08-08T06:20:58;15.60;99.90
28761;DHT22;15917;50.014;8.352;2023-08-08T06:23:24;15.60;99.90
28761;DHT22;15917;50.014;8.352;2023-08-08T06:25:49;15.70;99.90
28761;DHT22;15917;50.014;8.352;2023-08-08T06:28:15;15.70;99.90
28761;DHT22;15917;50.014;8.352;2023-08-08T06:30:40;15.70;99.90
28761;DHT22;15917;50.014;8.352;2023-08-08T06:33:06;15.80;99.90
28761;DHT22;15917;50.014;8.352;2023-08-08T06:35:33;15.80;99.90
28761;DHT22;15917;50.014;8.352;2023-08-08T06:37:58;15.80;99.90
28761;DHT22;15917;50.014;8.352;2023-08-08T06:40:24;15.90;99.90
28761;DHT22;15917;50.014;8.352;2023-08-08T06:42:50;15.90;99.90
28761;DHT22;15917;50.014;8.352;2023-08-08T06:45:15;16.00;99.90
28761;DHT22;15917;50.014;8.352;2023-08-08T06:47:41;16.10;99.90
28761;DHT22;15917;50.014;8.352;2023-08-08T06:50:07;16.10;99.90
28761;DHT22;15917;50.014;8.352;2023-08-08T06:52:33;16.20;99.90
28761;DHT22;15917;50.014;8.352;2023-08-08T06:54:58;16.20;99.90
28761;DHT22;15917;50.014;8.352;2023-08-08T06:57:24;16.30;99.90
28761;DHT22;15917;50.014;8.352;2023-08-08T06:59:49;16.40;99.90
28761;DHT22;15917;50.014;8.352;2023-08-08T07:02:16;16.40;99.90
28761;DHT22;15917;50.014;8.352;2023-08-08T07:04:42;16.50;99.90
28761;DHT22;15917;50.014;8.352;2023-08-08T07:07:08;16.40;99.90
28761;DHT22;15917;50.014;8.352;2023-08-08T07:09:33;16.50;99.90
28761;DHT22;15917;50.014;8.352;2023-08-08T07:11:59;16.50;99.90
28761;DHT22;15917;50.014;8.352;2023-08-08T07:14:24;16.60;99.90
28761;DHT22;15917;50.014;8.352;2023-08-08T07:16:50;16.60;99.90
28761;DHT22;15917;50.014;8.352;2023-08-08T07:19:15;16.70;99.90
28761;DHT22;15917;50.014;8.352;2023-08-08T07:21:41;16.80;99.90
28761;DHT22;15917;50.014;8.352;2023-08-08T07:24:07;16.80;99.90
28761;DHT22;15917;50.014;8.352;2023-08-08T07:26:32;16.80;99.90
28761;DHT22;15917;50.014;8.352;2023-08-08T07:28:58;16.90;99.90
28761;DHT22;15917;50.014;8.352;2023-08-08T07:31:24;17.00;99.90
28761;DHT22;15917;50.014;8.352;2023-08-08T07:33:49;17.10;99.90
28761;DHT22;15917;50.014;8.352;2023-08-08T07:36:15;17.20;99.90
28761;DHT22;15917;50.014;8.352;2023-08-08T07:38:40;17.30;99.90
28761;DHT22;15917;50.014;8.352;2023-08-08T07:41:06;17.40;99.90
28761;DHT22;15917;50.014;8.352;2023-08-08T07:43:32;17.60;99.90
28761;DHT22;15917;50.014;8.352;2023-08-08T07:45:58;17.80;99.90
28761;DHT22;15917;50.014;8.352;2023-08-08T07:48:24;17.80;99.90
28761;DHT22;15917;50.014;8.352;2023-08-08T07:50:49;17.90;99.90
28761;DHT22;15917;50.014;8.352;2023-08-08T07:53:15;17.90;99.90
28761;DHT22;15917;50.014;8.352;2023-08-08T07:55:40;18.00;99.90
28761;DHT22;15917;50.014;8.352;2023-08-08T07:58:06;18.00;99.90
28761;DHT22;15917;50.014;8.352;2023-08-08T08:00:31;18.10;99.90
28761;DHT22;15917;50.014;8.352;2023-08-08T08:02:57;18.10;99.90
28761;DHT22;15917;50.014;8.352;2023-08-08T08:05:23;18.10;99.90
28761;DHT22;15917;50.014;8.352;2023-08-08T08:07:48;18.10;99.90
28761;DHT22;15917;50.014;8.352;2023-08-08T08:10:14;18.10;99.90
28761;DHT22;15917;50.014;8.352;2023-08-08T08:12:40;18.20;99.90
28761;DHT22;15917;50.014;8.352;2023-08-08T08:15:07;18.40;99.90
28761;DHT22;15917;50.014;8.352;2023-08-08T08:17:33;18.40;99.90
28761;DHT22;15917;50.014;8.352;2023-08-08T08:19:59;18.40;99.90
28761;DHT22;15917;50.014;8.352;2023-08-08T08:22:24;18.40;99.90
28761;DHT22;15917;50.014;8.352;2023-08-08T08:24:50;18.50;99.90
28761;DHT22;15917;50.014;8.352;2023-08-08T08:27:16;18.60;99.90
28761;DHT22;15917;50.014;8.352;2023-08-08T08:29:42;18.60;99.90
28761;DHT22;15917;50.014;8.352;2023-08-08T08:32:08;18.70;99.90
28761;DHT22;15917;50.014;8.352;2023-08-08T08:34:34;18.80;99.90
28761;DHT22;15917;50.014;8.352;2023-08-08T08:36:59;18.80;99.90
28761;DHT22;15917;50.014;8.352;2023-08-08T08:39:25;18.80;99.90
28761;DHT22;15917;50.014;8.352;2023-08-08T08:41:57;18.90;99.90
28761;DHT22;15917;50.014;8.352;2023-08-08T08:44:25;18.90;99.90
28761;DHT22;15917;50.014;8.352;2023-08-08T08:46:52;18.80;99.90
28761;DHT22;15917;50.014;8.352;2023-08-08T08:49:18;18.80;99.90
28761;DHT22;15917;50.014;8.352;2023-08-08T08:51:44;18.80;99.90
28761;DHT22;15917;50.014;8.352;2023-08-08T08:54:10;18.70;99.90
28761;DHT22;15917;50.014;8.352;2023-08-08T08:56:36;18.70;99.90
28761;DHT22;15917;50.014;8.352;2023-08-08T08:59:02;18.90;99.90
28761;DHT22;15917;50.014;8.352;2023-08-08T09:01:28;19.00;99.90
28761;DHT22;15917;50.014;8.352;2023-08-08T09:03:54;19.00;99.90
28761;DHT22;15917;50.014;8.352;2023-08-08T09:06:22;19.00;99.90
28761;DHT22;15917;50.014;8.352;2023-08-08T09:08:48;19.10;99.90
28761;DHT22;15917;50.014;8.352;2023-08-08T09:11:14;19.20;99.90
28761;DHT22;15917;50.014;8.352;2023-08-08T09:13:40;19.30;99.90
28761;DHT22;15917;50.014;8.352;2023-08-08T09:16:09;19.50;99.90
28761;DHT22;15917;50.014;8.352;2023-08-08T09:18:37;19.50;99.90
28761;DHT22;15917;50.014;8.352;2023-08-08T09:21:07;19.50;99.90
28761;DHT22;15917;50.014;8.352;2023-08-08T09:23:33;19.60;99.90
28761;DHT22;15917;50.014;8.352;2023-08-08T09:25:58;19.80;99.90
28761;DHT22;15917;50.014;8.352;2023-08-08T09:28:24;20.00;99.90
28761;DHT22;15917;50.014;8.352;2023-08-08T09:30:50;20.30;99.90
28761;DHT22;15917;50.014;8.352;2023-08-08T09:33:17;20.40;99.90
28761;DHT22;15917;50.014;8.352;2023-08-08T09:35:43;20.40;99.90
28761;DHT22;15917;50.014;8.352;2023-08-08T09:38:09;20.60;99.90
28761;DHT22;15917;50.014;8.352;2023-08-08T09:40:35;20.80;99.90
28761;DHT22;15917;50.014;8.352;2023-08-08T09:43:02;21.00;99.90
28761;DHT22;15917;50.014;8.352;2023-08-08T09:45:36;21.20;99.90
28761;DHT22;15917;50.014;8.352;2023-08-08T09:48:02;21.40;99.90
28761;DHT22;15917;50.014;8.352;2023-08-08T09:50:28;21.40;99.90
28761;DHT22;15917;50.014;8.352;2023-08-08T09:52:54;21.30;99.90
28761;DHT22;15917;50.014;8.352;2023-08-08T09:55:21;21.10;99.90
28761;DHT22;15917;50.014;8.352;2023-08-08T09:57:48;21.00;99.90
28761;DHT22;15917;50.014;8.352;2023-08-08T10:00:14;21.00;99.90
28761;DHT22;15917;50.014;8.352;2023-08-08T10:02:44;21.00;99.90
28761;DHT22;15917;50.014;8.352;2023-08-08T10:05:12;21.20;99.90
28761;DHT22;15917;50.014;8.352;2023-08-08T10:07:42;21.40;99.90
28761;DHT22;15917;50.014;8.352;2023-08-08T10:10:09;21.40;99.90
28761;DHT22;15917;50.014;8.352;2023-08-08T10:12:39;21.40;99.90
28761;DHT22;15917;50.014;8.352;2023-08-08T10:15:11;21.30;99.90
28761;DHT22;15917;50.014;8.352;2023-08-08T10:17:37;21.30;99.90
28761;DHT22;15917;50.014;8.352;2023-08-08T10:20:04;21.30;99.90
28761;DHT22;15917;50.014;8.352;2023-08-08T10:22:52;21.30;99.90
28761;DHT22;15917;50.014;8.352;2023-08-08T10:25:25;21.40;99.90
28761;DHT22;15917;50.014;8.352;2023-08-08T10:28:08;21.40;99.90
28761;DHT22;15917;50.014;8.352;2023-08-08T10:30:55;21.50;99.90
28761;DHT22;15917;50.014;8.352;2023-08-08T10:36:06;21.50;99.90
28761;DHT22;15917;50.014;8.352;2023-08-08T10:38:44;21.40;99.90
28761;DHT22;15917;50.014;8.352;2023-08-08T10:41:14;21.40;99.90
28761;DHT22;15917;50.014;8.352;2023-08-08T10:43:50;21.40;99.90
28761;DHT22;15917;50.014;8.352;2023-08-08T10:46:27;21.50;99.90
28761;DHT22;15917;50.014;8.352;2023-08-08T10:48:55;21.80;99.90
28761;DHT22;15917;50.014;8.352;2023-08-08T10:51:21;22.00;99.90
28761;DHT22;15917;50.014;8.352;2023-08-08T10:53:51;21.90;99.90
28761;DHT22;15917;50.014;8.352;2023-08-08T10:56:18;21.90;99.90
28761;DHT22;15917;50.014;8.352;2023-08-08T10:58:48;21.90;99.90
28761;DHT22;15917;50.014;8.352;2023-08-08T11:01:14;21.90;99.90
28761;DHT22;15917;50.014;8.352;2023-08-08T11:03:42;21.90;99.90
28761;DHT22;15917;50.014;8.352;2023-08-08T11:06:09;22.00;99.90
28761;DHT22;15917;50.014;8.352;2023-08-08T11:08:36;21.80;99.90
28761;DHT22;15917;50.014;8.352;2023-08-08T11:11:04;21.80;99.90
28761;DHT22;15917;50.014;8.352;2023-08-08T11:13:29;21.80;99.90
28761;DHT22;15917;50.014;8.352;2023-08-08T11:15:55;21.80;99.90
28761;DHT22;15917;50.014;8.352;2023-08-08T11:18:21;21.70;99.90
28761;DHT22;15917;50.014;8.352;2023-08-08T11:20:48;21.60;99.90
28761;DHT22;15917;50.014;8.352;2023-08-08T11:23:15;21.50;99.90
28761;DHT22;15917;50.014;8.352;2023-08-08T11:25:45;21.40;99.90
28761;DHT22;15917;50.014;8.352;2023-08-08T11:28:11;21.50;99.90
28761;DHT22;15917;50.014;8.352;2023-08-08T11:30:42;21.30;99.90
28761;DHT22;15917;50.014;8.352;2023-08-08T11:33:08;21.50;99.90
28761;DHT22;15917;50.014;8.352;2023-08-08T11:35:34;21.50;99.90
28761;DHT22;15917;50.014;8.352;2023-08-08T11:38:00;21.70;99.90
28761;DHT22;15917;50.014;8.352;2023-08-08T11:40:28;21.80;99.90
28761;DHT22;15917;50.014;8.352;2023-08-08T11:42:55;21.80;99.90
28761;DHT22;15917;50.014;8.352;2023-08-08T11:45:22;22.00;99.90
28761;DHT22;15917;50.014;8.352;2023-08-08T11:47:49;22.10;99.90
28761;DHT22;15917;50.014;8.352;2023-08-08T11:50:15;22.20;99.90
28761;DHT22;15917;50.014;8.352;2023-08-08T11:52:42;22.20;99.90
28761;DHT22;15917;50.014;8.352;2023-08-08T11:55:12;22.30;99.90
28761;DHT22;15917;50.014;8.352;2023-08-08T11:57:39;22.40;99.90
28761;DHT22;15917;50.014;8.352;2023-08-08T12:00:09;22.40;99.90
28761;DHT22;15917;50.014;8.352;2023-08-08T12:02:42;22.40;99.90
28761;DHT22;15917;50.014;8.352;2023-08-08T12:05:10;22.40;99.90
28761;DHT22;15917;50.014;8.352;2023-08-08T12:07:37;22.40;99.90
28761;DHT22;15917;50.014;8.352;2023-08-08T12:10:12;22.60;99.90
28761;DHT22;15917;50.014;8.352;2023-08-08T12:12:38;22.60;99.90
28761;DHT22;15917;50.014;8.352;2023-08-08T12:15:07;22.60;99.90
28761;DHT22;15917;50.014;8.352;2023-08-08T12:17:34;22.90;99.90
28761;DHT22;15917;50.014;8.352;2023-08-08T12:20:03;23.10;99.90
28761;DHT22;15917;50.014;8.352;2023-08-08T12:22:31;23.10;99.90
28761;DHT22;15917;50.014;8.352;2023-08-08T12:24:56;23.10;99.90
28761;DHT22;15917;50.014;8.352;2023-08-08T12:27:22;23.00;99.90
28761;DHT22;15917;50.014;8.352;2023-08-08T12:29:48;22.90;99.90
28761;DHT22;15917;50.014;8.352;2023-08-08T12:32:13;22.80;99.90
28761;DHT22;15917;50.014;8.352;2023-08-08T12:34:39;22.80;99.90
28761;DHT22;15917;50.014;8.352;2023-08-08T12:37:04;22.90;99.90
28761;DHT22;15917;50.014;8.352;2023-08-08T12:39:30;22.90;99.90
28761;DHT22;15917;50.014;8.352;2023-08-08T12:41:56;22.70;99.90
28761;DHT22;15917;50.014;8.352;2023-08-08T12:44:22;22.50;99.90
28761;DHT22;15917;50.014;8.352;2023-08-08T12:46:47;22.30;99.90
28761;DHT22;15917;50.014;8.352;2023-08-08T12:49:13;22.40;99.90
28761;DHT22;15917;50.014;8.352;2023-08-08T12:51:38;22.50;99.90
28761;DHT22;15917;50.014;8.352;2023-08-08T12:54:04;22.60;99.90
28761;DHT22;15917;50.014;8.352;2023-08-08T12:56:30;22.50;99.90
28761;DHT22;15917;50.014;8.352;2023-08-08T12:58:55;22.60;99.90
28761;DHT22;15917;50.014;8.352;2023-08-08T13:01:21;22.60;99.90
28761;DHT22;15917;50.014;8.352;2023-08-08T13:03:46;22.50;99.90
28761;DHT22;15917;50.014;8.352;2023-08-08T13:06:12;22.60;99.90
28761;DHT22;15917;50.014;8.352;2023-08-08T13:08:39;22.70;99.90
28761;DHT22;15917;50.014;8.352;2023-08-08T13:11:04;22.90;99.90
28761;DHT22;15917;50.014;8.352;2023-08-08T13:13:30;22.90;99.90
28761;DHT22;15917;50.014;8.352;2023-08-08T13:15:59;23.00;99.90
28761;DHT22;15917;50.014;8.352;2023-08-08T13:18:25;23.20;99.90
28761;DHT22;15917;50.014;8.352;2023-08-08T13:20:50;23.20;99.90
28761;DHT22;15917;50.014;8.352;2023-08-08T13:23:16;23.20;99.90
28761;DHT22;15917;50.014;8.352;2023-08-08T13:25:42;23.20;99.90
28761;DHT22;15917;50.014;8.352;2023-08-08T13:28:08;23.10;99.90
28761;DHT22;15917;50.014;8.352;2023-08-08T13:30:33;23.00;99.90
28761;DHT22;15917;50.014;8.352;2023-08-08T13:33:00;23.30;99.90
28761;DHT22;15917;50.014;8.352;2023-08-08T13:35:26;23.60;99.90
28761;DHT22;15917;50.014;8.352;2023-08-08T13:37:52;23.60;99.90
28761;DHT22;15917;50.014;8.352;2023-08-08T13:40:18;23.70;99.90
28761;DHT22;15917;50.014;8.352;2023-08-08T13:42:44;23.80;99.90
28761;DHT22;15917;50.014;8.352;2023-08-08T13:45:14;23.70;99.90
28761;DHT22;15917;50.014;8.352;2023-08-08T13:47:39;23.70;99.90
28761;DHT22;15917;50.014;8.352;2023-08-08T13:50:06;23.60;99.90
28761;DHT22;15917;50.014;8.352;2023-08-08T13:52:31;23.70;99.90
28761;DHT22;15917;50.014;8.352;2023-08-08T13:54:58;23.70;99.90
28761;DHT22;15917;50.014;8.352;2023-08-08T13:57:24;23.60;99.90
28761;DHT22;15917;50.014;8.352;2023-08-08T13:59:50;23.50;99.90
28761;DHT22;15917;50.014;8.352;2023-08-08T14:02:15;23.30;99.90
28761;DHT22;15917;50.014;8.352;2023-08-08T14:04:46;23.20;99.90
28761;DHT22;15917;50.014;8.352;2023-08-08T14:07:11;23.00;99.90
28761;DHT22;15917;50.014;8.352;2023-08-08T14:09:37;22.70;99.90
28761;DHT22;15917;50.014;8.352;2023-08-08T14:12:03;22.60;99.90
28761;DHT22;15917;50.014;8.352;2023-08-08T14:14:29;22.50;99.90
28761;DHT22;15917;50.014;8.352;2023-08-08T14:16:54;22.30;99.90
28761;DHT22;15917;50.014;8.352;2023-08-08T14:19:20;22.20;99.90
28761;DHT22;15917;50.014;8.352;2023-08-08T14:21:45;22.00;99.90
28761;DHT22;15917;50.014;8.352;2023-08-08T14:24:11;21.80;99.90
28761;DHT22;15917;50.014;8.352;2023-08-08T14:26:37;21.80;99.90
28761;DHT22;15917;50.014;8.352;2023-08-08T14:29:03;21.60;99.90
28761;DHT22;15917;50.014;8.352;2023-08-08T14:31:30;21.50;99.90
28761;DHT22;15917;50.014;8.352;2023-08-08T14:33:55;21.30;99.90
28761;DHT22;15917;50.014;8.352;2023-08-08T14:36:21;21.20;99.90
28761;DHT22;15917;50.014;8.352;2023-08-08T14:38:46;21.00;99.90
28761;DHT22;15917;50.014;8.352;2023-08-08T14:41:12;21.00;99.90
28761;DHT22;15917;50.014;8.352;2023-08-08T14:43:38;21.00;99.90
28761;DHT22;15917;50.014;8.352;2023-08-08T14:46:04;21.00;99.90
28761;DHT22;15917;50.014;8.352;2023-08-08T14:48:29;21.10;99.90
28761;DHT22;15917;50.014;8.352;2023-08-08T14:50:55;21.10;99.90
28761;DHT22;15917;50.014;8.352;2023-08-08T14:53:21;21.20;99.90
28761;DHT22;15917;50.014;8.352;2023-08-08T14:55:46;21.20;99.90
28761;DHT22;15917;50.014;8.352;2023-08-08T14:58:13;21.20;99.90
28761;DHT22;15917;50.014;8.352;2023-08-08T15:00:40;21.30;99.90
28761;DHT22;15917;50.014;8.352;2023-08-08T15:03:06;21.30;99.90
28761;DHT22;15917;50.014;8.352;2023-08-08T15:05:32;21.30;99.90
28761;DHT22;15917;50.014;8.352;2023-08-08T15:07:57;21.30;99.90
28761;DHT22;15917;50.014;8.352;2023-08-08T15:10:23;21.10;99.90
28761;DHT22;15917;50.014;8.352;2023-08-08T15:12:49;20.90;99.90
28761;DHT22;15917;50.014;8.352;2023-08-08T15:15:14;20.70;99.90
28761;DHT22;15917;50.014;8.352;2023-08-08T15:17:42;20.60;99.90
28761;DHT22;15917;50.014;8.352;2023-08-08T15:20:09;20.60;99.90
28761;DHT22;15917;50.014;8.352;2023-08-08T15:22:36;20.70;99.90
28761;DHT22;15917;50.014;8.352;2023-08-08T15:25:02;20.90;99.90
28761;DHT22;15917;50.014;8.352;2023-08-08T15:27:27;21.00;99.90